createdAt,value
2022-09-06T00:01:11.626Z,55.82
2022-09-06T00:05:20.027Z,56.09
2022-09-06T00:09:27.911Z,55.85
2022-09-06T00:13:37.597Z,55.91
2022-09-06T00:17:46.702Z,56.48
2022-09-06T00:21:54.600Z,56.37
2022-09-06T00:26:07.447Z,56.58
2022-09-06T00:30:16.513Z,56.59
2022-09-06T00:34:24.510Z,56.51
2022-09-06T00:38:32.212Z,56.68
2022-09-06T00:42:40.413Z,56.41
2022-09-06T00:46:49.897Z,56.13
2022-09-06T00:50:59.057Z,56.52
2022-09-06T00:55:07.976Z,57.25
2022-09-06T00:59:16.259Z,57.60
2022-09-06T01:03:25.552Z,57.25
2022-09-06T01:07:42.069Z,56.88
2022-09-06T01:12:00.648Z,57.41
2022-09-06T01:16:15.005Z,57.77
2022-09-06T01:20:35.221Z,57.86
2022-09-06T01:25:08.922Z,57.77
2022-09-06T01:29:22.299Z,58.28
2022-09-06T01:33:34.071Z,58.36
2022-09-06T01:37:42.365Z,58.49
2022-09-06T01:41:50.350Z,58.37
2022-09-06T01:46:05.409Z,58.35
2022-09-06T01:50:45.629Z,58.42
2022-09-06T01:55:07.719Z,58.26
2022-09-06T01:59:38.539Z,58.54
2022-09-06T02:03:50.104Z,58.84
2022-09-06T02:08:01.950Z,59.56
2022-09-06T02:12:13.471Z,59.44
2022-09-06T02:16:26.831Z,59.43
2022-09-06T02:20:36.907Z,60.30
2022-09-06T02:24:45.743Z,60.91
2022-09-06T02:28:53.870Z,60.97
2022-09-06T02:33:03.847Z,61.00
2022-09-06T02:37:12.456Z,60.80
2022-09-06T02:41:22.939Z,60.58
2022-09-06T02:45:33.619Z,60.70
2022-09-06T02:49:41.580Z,60.93
2022-09-06T02:53:49.445Z,60.44
2022-09-06T02:57:57.670Z,60.40
2022-09-06T03:02:05.697Z,60.86
2022-09-06T03:06:14.124Z,61.28
2022-09-06T03:10:22.299Z,61.31
2022-09-06T03:14:30.660Z,61.84
2022-09-06T03:18:38.500Z,62.01
2022-09-06T03:22:47.197Z,61.67
2022-09-06T03:26:55.952Z,61.43
2022-09-06T03:31:03.744Z,61.16
2022-09-06T03:35:13.148Z,60.81
2022-09-06T03:39:21.406Z,60.77
2022-09-06T03:43:30.221Z,60.61
2022-09-06T03:47:38.534Z,60.08
2022-09-06T03:51:47.088Z,60.14
2022-09-06T03:55:56.233Z,60.17
2022-09-06T04:00:05.582Z,60.19
2022-09-06T04:04:13.220Z,59.76
2022-09-06T04:08:21.365Z,59.87
2022-09-06T04:12:29.534Z,59.58
2022-09-06T04:16:37.818Z,59.64
2022-09-06T04:20:46.802Z,59.41
2022-09-06T04:24:54.669Z,59.51
2022-09-06T04:29:03.004Z,59.55
2022-09-06T04:33:10.788Z,59.67
2022-09-06T04:37:20.712Z,59.67
2022-09-06T04:41:29.389Z,60.16
2022-09-06T04:45:44.862Z,60.23
2022-09-06T04:49:55.307Z,60.45
2022-09-06T04:54:04.746Z,60.30
2022-09-06T04:58:17.239Z,59.43
2022-09-06T05:02:29.492Z,59.66
2022-09-06T05:06:41.714Z,59.44
2022-09-06T05:10:49.941Z,59.79
2022-09-06T05:15:01.769Z,60.29
2022-09-06T05:19:09.886Z,59.97
2022-09-06T05:23:21.154Z,59.92
2022-09-06T05:27:34.919Z,59.90
2022-09-06T05:31:50.299Z,59.88
2022-09-06T05:36:00.723Z,60.04
2022-09-06T05:40:13.402Z,59.71
2022-09-06T05:44:28.557Z,59.63
2022-09-06T05:48:41.752Z,59.03
2022-09-06T05:52:59.499Z,59.17
2022-09-06T05:57:07.305Z,59.47
2022-09-06T06:01:22.544Z,59.39
2022-09-06T06:05:37.791Z,59.64
2022-09-06T06:09:47.787Z,59.65
2022-09-06T06:14:03.789Z,59.83
2022-09-06T06:18:11.636Z,59.69
2022-09-06T06:22:19.750Z,60.17
2022-09-06T06:26:35.288Z,60.61
2022-09-06T06:30:45.496Z,60.24
2022-09-06T06:35:02.235Z,60.18
2022-09-06T06:39:13.731Z,60.78
2022-09-06T06:43:24.792Z,61.06
2022-09-06T06:47:37.087Z,61.97
2022-09-06T06:51:51.149Z,61.91
2022-09-06T06:56:14.245Z,61.97
2022-09-06T07:00:25.170Z,62.35
2022-09-06T07:04:36.703Z,62.08
2022-09-06T07:08:49.358Z,62.30
2022-09-06T07:13:00.179Z,62.28
2022-09-06T07:17:10.109Z,62.81
2022-09-06T07:21:42.523Z,62.58
2022-09-06T07:25:56.941Z,62.93
2022-09-06T07:30:15.228Z,62.43
2022-09-06T07:34:30.190Z,62.70
2022-09-06T07:38:45.060Z,63.08
2022-09-06T07:42:59.451Z,62.89
2022-09-06T07:51:37.093Z,63.04
2022-09-06T07:55:44.684Z,62.80
2022-09-06T07:59:58.154Z,62.53
2022-09-06T08:04:13.122Z,62.79
2022-09-06T08:13:03.498Z,62.32
2022-09-06T08:17:12.756Z,61.14
2022-09-06T08:21:25.268Z,60.74
2022-09-06T08:25:40.918Z,60.35
2022-09-06T08:29:55.448Z,60.21
2022-09-06T08:34:06.003Z,59.56
2022-09-06T08:38:14.940Z,59.23
2022-09-06T08:42:22.819Z,59.15
2022-09-06T08:46:33.906Z,58.91
2022-09-06T08:50:43.593Z,58.26
2022-09-06T08:54:58.624Z,58.10
2022-09-06T08:59:09.471Z,58.09
2022-09-06T09:03:24.067Z,57.93
2022-09-06T09:08:01.751Z,57.08
2022-09-06T09:12:13.583Z,56.87
2022-09-06T09:16:31.302Z,56.87
2022-09-06T09:20:45.514Z,56.42
2022-09-06T09:24:57.323Z,56.62
2022-09-06T09:29:12.706Z,56.70
2022-09-06T09:33:30.225Z,56.52
2022-09-06T09:41:53.730Z,56.44
2022-09-06T09:46:16.889Z,56.25
2022-09-06T09:50:30.317Z,56.00
2022-09-06T09:54:39.874Z,56.07
2022-09-06T09:58:47.499Z,55.37
2022-09-06T10:02:55.970Z,55.26
2022-09-06T10:07:15.458Z,54.92
2022-09-06T10:11:41.848Z,54.10
2022-09-06T10:15:50.599Z,53.89
2022-09-06T10:19:58.915Z,53.76
2022-09-06T10:28:36.486Z,54.27
2022-09-06T10:32:53.879Z,53.10
2022-09-06T10:37:09.987Z,52.89
2022-09-06T10:41:34.469Z,53.37
2022-09-06T10:45:48.731Z,52.69
2022-09-06T10:49:59.268Z,52.38
2022-09-06T10:54:13.065Z,52.17
2022-09-06T11:07:38.232Z,51.34
2022-09-06T11:11:49.044Z,51.64
2022-09-06T11:16:01.656Z,51.06
2022-09-06T11:20:13.361Z,50.56
2022-09-06T11:24:30.450Z,49.79
2022-09-06T11:28:41.096Z,49.65
2022-09-06T11:32:50.499Z,49.52
2022-09-06T11:37:00.173Z,49.03
2022-09-06T11:41:16.913Z,48.70
2022-09-06T11:45:40.891Z,47.74
2022-09-06T11:49:49.792Z,47.83
2022-09-06T11:54:25.257Z,47.86
2022-09-06T11:58:48.283Z,47.49
2022-09-06T12:07:24.631Z,45.74
2022-09-06T12:11:39.712Z,45.70
2022-09-06T12:15:56.742Z,45.46
2022-09-06T12:20:11.380Z,45.51
2022-09-06T12:24:54.537Z,44.94
2022-09-06T12:29:02.752Z,44.35
2022-09-06T12:33:13.375Z,44.07
2022-09-06T12:37:34.243Z,42.47
2022-09-06T12:41:44.683Z,43.03
2022-09-06T12:45:53.671Z,43.70
2022-09-06T12:50:18.935Z,42.88
2022-09-06T12:54:28.968Z,43.28
2022-09-06T12:58:36.961Z,43.00
2022-09-06T13:02:53.382Z,42.65
2022-09-06T13:07:04.622Z,42.29
2022-09-06T13:11:14.655Z,42.03
2022-09-06T13:15:25.400Z,41.72
2022-09-06T13:19:38.277Z,41.68
2022-09-06T13:23:48.587Z,41.33
2022-09-06T13:27:59.083Z,41.33
2022-09-06T13:32:09.968Z,41.81
2022-09-06T13:36:26.265Z,41.77
2022-09-06T13:41:10.591Z,41.56
2022-09-06T13:45:26.329Z,40.45
2022-09-06T13:49:35.898Z,39.95
2022-09-06T13:53:43.956Z,40.10
2022-09-06T13:57:51.972Z,40.61
2022-09-06T14:02:04.982Z,40.91
2022-09-06T14:06:13.711Z,41.12
2022-09-06T14:10:24.269Z,41.09
2022-09-06T14:14:31.697Z,40.67
2022-09-06T14:18:40.643Z,41.44
2022-09-06T14:22:48.517Z,41.71
2022-09-06T14:26:56.479Z,42.31
2022-09-06T14:31:12.962Z,42.27
2022-09-06T14:35:20.681Z,41.80
2022-09-06T14:39:28.714Z,41.60
2022-09-06T14:43:37.146Z,41.89
2022-09-06T14:47:45.926Z,41.83
2022-09-06T14:51:55.024Z,41.99
2022-09-06T14:56:06.327Z,41.77
2022-09-06T15:00:16.069Z,41.52
2022-09-06T15:04:23.939Z,41.97
2022-09-06T15:08:31.238Z,42.19
2022-09-06T15:12:39.463Z,42.42
2022-09-06T15:16:53.360Z,42.55
2022-09-06T15:21:13.674Z,42.40
2022-09-06T15:25:21.276Z,42.88
2022-09-06T15:29:29.182Z,43.26
2022-09-06T15:33:38.384Z,43.11
2022-09-06T15:37:46.386Z,43.39
2022-09-06T15:41:54.922Z,44.38
2022-09-06T15:46:02.127Z,44.21
2022-09-06T15:50:11.253Z,44.34
2022-09-06T15:54:40.247Z,44.39
2022-09-06T15:58:48.546Z,44.79
2022-09-06T16:02:58.389Z,44.85
2022-09-06T16:07:06.806Z,45.41
2022-09-06T16:11:16.016Z,45.62
2022-09-06T16:15:23.943Z,45.49
2022-09-06T16:19:31.754Z,45.36
2022-09-06T16:23:40.336Z,45.36
2022-09-06T16:27:47.955Z,45.54
2022-09-06T16:32:00.016Z,45.74
2022-09-06T16:36:11.344Z,45.91
2022-09-06T16:40:19.393Z,46.18
2022-09-06T16:44:27.257Z,46.84
2022-09-06T16:48:35.076Z,46.83
2022-09-06T16:52:43.051Z,46.95
2022-09-06T16:56:51.062Z,47.19
2022-09-06T17:01:01.199Z,47.24
2022-09-06T17:05:11.456Z,47.60
2022-09-06T17:09:21.227Z,47.66
2022-09-06T17:13:29.555Z,47.93
2022-09-06T17:17:37.590Z,48.46
2022-09-06T17:21:45.747Z,48.63
2022-09-06T17:25:53.966Z,49.27
2022-09-06T17:30:01.782Z,50.24
2022-09-06T17:34:09.601Z,51.11
2022-09-06T17:38:18.486Z,51.95
2022-09-06T17:42:27.050Z,52.66
2022-09-06T17:46:35.104Z,53.04
2022-09-06T17:50:43.511Z,53.20
2022-09-06T17:54:51.137Z,52.54
2022-09-06T17:59:01.423Z,52.22
2022-09-06T18:03:11.076Z,52.31
2022-09-06T18:07:19.990Z,52.09
2022-09-06T18:11:29.287Z,51.93
2022-09-06T18:15:42.240Z,51.63
2022-09-06T18:19:49.698Z,52.04
2022-09-06T18:23:59.403Z,52.06
2022-09-06T18:28:09.861Z,51.94
2022-09-06T18:32:18.222Z,51.47
2022-09-06T18:36:31.152Z,51.35
2022-09-06T18:40:41.225Z,51.19
2022-09-06T18:44:48.986Z,51.10
2022-09-06T18:48:57.196Z,51.08
2022-09-06T18:53:04.749Z,50.84
2022-09-06T18:57:15.529Z,50.74
2022-09-06T19:01:23.025Z,50.63
2022-09-06T19:05:31.611Z,50.62
2022-09-06T19:09:39.474Z,50.41
2022-09-06T19:13:51.141Z,50.58
2022-09-06T19:17:59.105Z,50.50
2022-09-06T19:22:07.370Z,50.71
2022-09-06T19:26:17.872Z,50.80
2022-09-06T19:30:25.257Z,50.93
2022-09-06T19:34:33.637Z,50.69
2022-09-06T19:39:02.103Z,50.80
2022-09-06T19:43:09.638Z,51.18
2022-09-06T19:47:18.057Z,51.26
2022-09-06T19:51:26.215Z,51.28
2022-09-06T19:55:35.816Z,51.58
2022-09-06T19:59:45.142Z,51.43
2022-09-06T20:03:52.735Z,51.44
2022-09-06T20:08:00.759Z,51.59
2022-09-06T20:12:09.751Z,51.71
2022-09-06T20:16:20.414Z,51.88
2022-09-06T20:20:28.767Z,52.07
2022-09-06T20:24:38.140Z,52.29
2022-09-06T20:28:46.183Z,52.53
2022-09-06T20:32:53.874Z,52.77
2022-09-06T20:37:01.905Z,52.93
2022-09-06T20:41:11.074Z,52.94
2022-09-06T20:45:19.795Z,53.07
2022-09-06T20:49:27.908Z,53.30
2022-09-06T20:53:37.790Z,53.51
2022-09-06T20:57:47.800Z,53.71
2022-09-06T21:01:55.484Z,53.92
2022-09-06T21:06:07.700Z,54.06
2022-09-06T21:10:15.709Z,54.25
2022-09-06T21:14:23.366Z,54.47
2022-09-06T21:18:31.664Z,54.39
2022-09-06T21:22:39.272Z,54.44
2022-09-06T21:26:46.841Z,54.64
2022-09-06T21:31:04.825Z,54.94
2022-09-06T21:35:12.966Z,54.95
2022-09-06T21:39:20.727Z,55.15
2022-09-06T21:43:28.523Z,55.17
2022-09-06T21:47:36.452Z,55.36
2022-09-06T21:51:44.703Z,55.67
2022-09-06T21:55:52.926Z,55.63
2022-09-06T22:00:01.046Z,55.74
2022-09-06T22:04:14.752Z,55.77
2022-09-06T22:08:22.976Z,55.79
2022-09-06T22:12:31.291Z,55.69
2022-09-06T22:16:40.892Z,55.65
2022-09-06T22:20:48.364Z,55.54
2022-09-06T22:24:55.903Z,55.46
2022-09-06T22:29:06.135Z,55.57
2022-09-06T22:33:14.083Z,55.70
2022-09-06T22:37:22.524Z,55.70
2022-09-06T22:41:31.770Z,55.98
2022-09-06T22:45:40.825Z,56.30
2022-09-06T22:49:49.453Z,56.57
2022-09-06T22:53:57.665Z,56.82
2022-09-06T22:58:06.240Z,57.18
2022-09-06T23:02:13.976Z,57.08
2022-09-06T23:06:21.881Z,57.44
2022-09-06T23:10:30.648Z,57.45
2022-09-06T23:14:38.358Z,57.73
2022-09-06T23:18:45.638Z,57.81
2022-09-06T23:22:53.206Z,57.89
2022-09-06T23:27:02.444Z,57.97
2022-09-06T23:31:12.060Z,58.11
2022-09-06T23:35:21.135Z,58.32
2022-09-06T23:39:29.798Z,58.45
2022-09-06T23:43:38.285Z,58.39
2022-09-06T23:47:46.686Z,58.45
2022-09-06T23:51:56.180Z,58.69
2022-09-06T23:56:04.866Z,58.83
